Time;durP1;ratioP1;P1;durP2;ratioP2;P2;SDS_P1;SDS_P2;PMS_P1;PMS_P2;Temp;Humidity;BMP_temperature;BMP_pressure;BME280_temperature;BME280_humidity;BME280_pressure;Samples;Min_cycle;Max_cycle;Signal;HPM_P1;HPM_P2
2022/05/26 00:02:16;;;;;;;4.45;1.55;;;;;;;12.52;100.00;99171.00;5031163;28;20045;-69
2022/05/26 00:04:41;;;;;;;5.18;1.27;;;;;;;12.47;100.00;99159.94;5026677;28;20509;-69
2022/05/26 00:07:08;;;;;;;2.10;1.13;;;;;;;12.53;100.00;99161.00;5032640;28;20021;-69
2022/05/26 00:09:33;;;;;;;2.28;1.23;;;;;;;12.50;100.00;99175.84;5024785;28;20032;-69
2022/05/26 00:11:59;;;;;;;4.88;1.10;;;;;;;12.57;100.00;99179.38;5026098;28;20104;-69
2022/05/26 00:14:24;;;;;;;2.45;1.10;;;;;;;12.58;100.00;99178.34;5031596;28;20108;-69
2022/05/26 00:16:49;;;;;;;2.65;1.30;;;;;;;12.53;100.00;99169.16;5033382;28;20026;-69
2022/05/26 00:19:17;;;;;;;5.93;1.27;;;;;;;12.74;100.00;99187.13;5031862;28;20076;-68
2022/05/26 00:21:43;;;;;;;1.52;1.00;;;;;;;12.88;100.00;99188.78;5025382;28;20479;-69
2022/05/26 00:24:09;;;;;;;1.45;1.00;;;;;;;12.92;100.00;99190.88;5031975;28;20032;-69
2022/05/26 00:26:34;;;;;;;1.65;1.13;;;;;;;12.83;100.00;99185.88;5031567;28;20029;-69
2022/05/26 00:29:00;;;;;;;2.85;1.13;;;;;;;12.52;100.00;99116.72;5032469;28;20025;-69
2022/05/26 00:31:26;;;;;;;2.90;1.10;;;;;;;12.87;100.00;99173.56;5024572;28;20041;-69
2022/05/26 00:33:51;;;;;;;6.20;1.20;;;;;;;12.93;100.00;99191.72;5031981;28;20105;-69
2022/05/26 00:36:37;;;;;;;4.13;1.30;;;;;;;12.88;100.00;99184.19;5028918;28;20092;-68
2022/05/26 00:39:04;;;;;;;3.08;1.13;;;;;;;12.85;100.00;99184.63;5032341;28;20017;-69
2022/05/26 00:41:29;;;;;;;5.22;1.23;;;;;;;12.94;100.00;99190.66;5024757;28;20034;-68
2022/05/26 00:43:54;;;;;;;1.60;1.20;;;;;;;13.01;100.00;99196.09;5030190;28;20029;-69
2022/05/26 00:46:39;;;;;;;2.17;1.25;;;;;;;13.11;100.00;99182.94;5032383;28;20029;-69
2022/05/26 00:49:08;;;;;;;2.40;1.17;;;;;;;13.02;100.00;99167.88;5028641;28;20052;-69
2022/05/26 00:51:35;;;;;;;;;;;;;;;13.09;100.00;99187.75;5031072;28;20017;-69
2022/05/26 00:54:12;;;;;;;3.42;0.93;;;;;;;13.02;100.00;99178.75;5031310;28;19960;-69
2022/05/26 00:56:44;;;;;;;2.50;1.00;;;;;;;13.02;100.00;99189.63;5026991;28;20038;-69
2022/05/26 00:59:18;;;;;;;1.83;1.00;;;;;;;12.97;100.00;99186.69;5030469;28;20045;-69
2022/05/26 01:01:44;;;;;;;2.22;0.93;;;;;;;12.92;100.00;99190.88;5029781;28;20029;-69
2022/05/26 01:04:15;;;;;;;1.90;0.95;;;;;;;12.90;100.00;99187.53;5028946;28;20134;-68
2022/05/26 01:06:49;;;;;;;1.88;0.88;;;;;;;12.88;100.00;99177.94;5030211;28;20510;-69
2022/05/26 01:09:15;;;;;;;3.70;0.98;;;;;;;12.93;100.00;99187.13;5029790;28;20110;-69
2022/05/26 01:11:43;;;;;;;2.10;0.90;;;;;;;12.96;100.00;99188.56;5028251;28;20049;-69
2022/05/26 01:14:15;;;;;;;3.75;0.88;;;;;;;13.01;100.00;99191.50;5031902;28;20100;-69
2022/05/26 01:16:41;;;;;;;4.78;1.20;;;;;;;13.07;100.00;99187.97;5027486;28;20040;-69
2022/05/26 01:19:45;;;;;;;2.50;1.25;;;;;;;13.22;100.00;99184.19;5030045;28;20025;-69
2022/05/26 01:22:44;;;;;;;4.07;1.00;;;;;;;13.28;100.00;99183.34;5028565;28;20028;-69
2022/05/26 01:25:47;;;;;;;2.42;1.05;;;;;;;13.09;100.00;99174.16;5024959;28;20487;-69
2022/05/26 01:28:30;;;;;;;2.75;1.00;;;;;;;13.00;100.00;99175.44;5030310;28;20025;-69
2022/05/26 01:31:07;;;;;;;2.60;1.13;;;;;;;12.99;100.00;99174.56;5026120;28;20520;-69
2022/05/26 01:34:02;;;;;;;1.60;0.80;;;;;;;12.92;100.00;99174.59;5029169;28;20032;-69
2022/05/26 01:36:41;;;;;;;4.05;1.00;;;;;;;12.78;100.00;99155.78;5003762;28;20160;-69
2022/05/26 01:39:29;;;;;;;;;;;;;;;12.84;100.00;99173.97;5023914;28;20458;-69
2022/05/26 01:42:29;;;;;;;1.15;0.80;;;;;;;12.85;100.00;99178.34;5025015;28;20323;-69
2022/05/26 01:45:16;;;;;;;2.10;0.80;;;;;;;12.81;100.00;99183.38;5028667;28;20037;-69
2022/05/26 01:47:52;;;;;;;4.53;0.70;;;;;;;12.73;100.00;99172.69;5027585;28;20025;-69
2022/05/26 01:50:30;;;;;;;1.92;0.70;;;;;;;12.70;100.00;99176.66;5028555;28;20108;-69
2022/05/26 01:53:08;;;;;;;1.35;0.70;;;;;;;12.65;100.00;99173.75;5030420;28;20075;-69
2022/05/26 01:55:53;;;;;;;2.42;0.90;;;;;;;12.59;100.00;99177.28;5031551;28;20021;-69
2022/05/26 01:58:38;;;;;;;2.35;0.70;;;;;;;12.41;100.00;99158.06;5025814;28;20067;-69
2022/05/26 02:01:10;;;;;;;3.35;0.88;;;;;;;12.43;100.00;99175.81;5024267;28;20485;-69
2022/05/26 02:03:37;;;;;;;2.20;0.80;;;;;;;12.29;100.00;99179.56;5029215;28;20051;-69
2022/05/26 02:06:20;;;;;;;3.53;1.27;;;;;;;12.15;100.00;99185.97;5031108;28;20029;-69
2022/05/26 02:08:53;;;;;;;3.75;1.20;;;;;;;12.08;100.00;99183.25;5030099;28;20486;-68
2022/05/26 02:11:21;;;;;;;2.30;0.82;;;;;;;11.94;100.00;99187.75;5024928;28;20078;-68
2022/05/26 02:13:49;;;;;;;1.60;0.88;;;;;;;11.82;100.00;99190.19;5032497;28;20025;-69
2022/05/26 02:16:36;;;;;;;2.10;0.90;;;;;;;11.68;100.00;99193.03;5030482;28;20121;-69
2022/05/26 02:19:28;;;;;;;3.03;0.93;;;;;;;11.65;100.00;99188.03;5027943;28;20100;-68
2022/05/26 02:22:31;;;;;;;1.88;1.27;;;;;;;11.78;100.00;99193.50;5019254;28;20064;-68
2022/05/26 02:25:06;;;;;;;3.58;0.80;;;;;;;11.80;100.00;99186.03;5025426;28;20038;-69
2022/05/26 02:27:32;;;;;;;2.30;0.75;;;;;;;11.80;100.00;99183.31;5031871;28;20021;-69
2022/05/26 02:30:00;;;;;;;1.83;0.77;;;;;;;11.83;100.00;99186.44;5027732;28;20029;-69
2022/05/26 02:32:26;;;;;;;1.80;0.60;;;;;;;11.83;100.00;99185.59;5030962;28;20017;-69
2022/05/26 02:34:54;;;;;;;1.65;0.70;;;;;;;11.72;100.00;99186.19;5030655;28;20037;-68
2022/05/26 02:37:22;;;;;;;1.33;0.73;;;;;;;11.48;100.00;99161.28;5018144;28;20070;-68
2022/05/26 02:39:47;;;;;;;2.13;0.73;;;;;;;11.53;100.00;99185.91;5027854;28;20087;-69
2022/05/26 02:42:13;;;;;;;1.60;0.70;;;;;;;11.47;100.00;99188.56;5028918;28;20510;-69
2022/05/26 02:44:41;;;;;;;3.15;0.90;;;;;;;11.44;100.00;99184.38;5027990;28;20061;-68
2022/05/26 02:47:25;;;;;;;3.35;0.70;;;;;;;11.41;100.00;99187.47;5028297;28;20487;-68
2022/05/26 02:50:13;;;;;;;1.35;0.70;;;;;;;11.40;100.00;99166.84;5025991;28;20033;-69
2022/05/26 02:53:06;;;;;;;1.45;0.60;;;;;;;11.57;100.00;99156.50;5029544;28;20043;-69
2022/05/26 02:55:58;;;;;;;1.58;0.70;;;;;;;11.89;100.00;99190.25;5028553;28;20036;-69
2022/05/26 02:58:34;;;;;;;1.20;0.70;;;;;;;12.05;100.00;99194.47;5034966;28;20513;-69
2022/05/26 03:01:23;;;;;;;6.30;0.80;;;;;;;12.22;100.00;99193.09;5024651;28;20087;-69
2022/05/26 03:03:54;;;;;;;0.85;0.60;;;;;;;12.33;100.00;99183.50;5029146;28;20040;-68
2022/05/26 03:06:29;;;;;;;2.38;0.80;;;;;;;12.28;100.00;99181.41;5028920;28;20025;-69
2022/05/26 03:08:55;;;;;;;1.92;0.70;;;;;;;12.33;100.00;99191.66;5025530;28;20026;-69
2022/05/26 03:11:23;;;;;;;4.05;0.70;;;;;;;12.37;100.00;99184.78;5027325;28;20036;-68
2022/05/26 03:13:50;;;;;;;1.80;0.90;;;;;;;12.38;100.00;99193.75;5028449;28;20049;-69
2022/05/26 03:16:16;;;;;;;2.92;0.80;;;;;;;12.37;100.00;99189.38;5022641;28;20490;-69
2022/05/26 03:18:41;;;;;;;3.22;1.13;;;;;;;12.38;100.00;99186.44;5040090;23;20077;-69
2022/05/26 03:21:08;;;;;;;1.90;0.90;;;;;;;12.44;100.00;99193.78;5030163;28;20056;-69
2022/05/26 03:23:34;;;;;;;2.45;0.70;;;;;;;12.46;100.00;99188.97;5033131;28;20025;-69
2022/05/26 03:26:00;;;;;;;3.22;0.70;;;;;;;12.56;100.00;99191.28;5031469;28;20030;-69
2022/05/26 03:28:27;;;;;;;2.20;0.95;;;;;;;12.58;100.00;99196.50;5024945;28;20151;-69
2022/05/26 03:30:52;;;;;;;2.97;0.80;;;;;;;12.57;100.00;99190.22;5012868;28;20034;-68
2022/05/26 03:33:18;;;;;;;3.55;0.68;;;;;;;12.57;100.00;99192.94;5014967;28;20026;-69
2022/05/26 03:41:18;;;;;;;1.10;0.73;;;;;;;12.53;100.00;99194.41;5012080;28;20092;-69
2022/05/26 03:43:58;;;;;;;5.93;1.20;;;;;;;12.50;100.00;99201.09;5011544;28;20642;-68
2022/05/26 03:46:27;;;;;;;3.90;1.17;;;;;;;12.49;100.00;99199.41;5007485;28;20395;-68
2022/05/26 03:48:53;;;;;;;2.10;0.70;;;;;;;12.52;100.00;99200.03;5013306;28;20487;-68
2022/05/26 03:51:18;;;;;;;2.35;0.55;;;;;;;12.52;100.00;99205.47;5010214;28;20084;-68
2022/05/26 03:53:44;;;;;;;1.35;0.55;;;;;;;12.25;100.00;99141.13;5007572;28;20030;-68
2022/05/26 03:56:09;;;;;;;0.75;0.47;;;;;;;12.65;100.00;99209.06;5001588;28;20137;-68
2022/05/26 03:58:35;;;;;;;0.93;0.50;;;;;;;12.75;100.00;99207.78;5014133;28;20467;-68
2022/05/26 04:01:07;;;;;;;0.50;0.50;;;;;;;12.77;100.00;99205.72;5011126;28;20071;-68
2022/05/26 04:03:33;;;;;;;0.77;0.47;;;;;;;12.87;100.00;99211.56;5014206;28;20026;-68
2022/05/26 04:05:59;;;;;;;1.15;0.60;;;;;;;12.95;100.00;99205.94;5014492;28;20045;-68
2022/05/26 04:08:24;;;;;;;1.42;0.57;;;;;;;13.06;100.00;99218.88;5012782;28;20018;-68
2022/05/26 04:10:50;;;;;;;0.52;0.35;;;;;;;13.28;100.00;99219.53;5010666;28;20096;-68
2022/05/26 04:13:15;;;;;;;4.88;0.70;;;;;;;13.37;100.00;99204.66;5010943;28;20018;-68
2022/05/26 04:15:41;;;;;;;2.90;0.65;;;;;;;13.65;100.00;99219.88;5012494;28;20530;-69
2022/05/26 04:18:06;;;;;;;0.65;0.30;;;;;;;13.77;100.00;99211.91;5014752;28;20030;-69
2022/05/26 04:20:32;;;;;;;1.58;0.45;;;;;;;13.94;100.00;99226.69;5015626;28;20480;-69
2022/05/26 04:22:57;;;;;;;0.93;0.30;;;;;;;14.07;100.00;99224.97;5012897;28;20038;-69
2022/05/26 04:25:25;;;;;;;6.55;0.60;;;;;;;14.07;100.00;99206.78;5012400;28;20048;-69
2022/05/26 04:27:53;;;;;;;1.40;0.70;;;;;;;14.06;100.00;99207.81;5015559;28;20025;-69
2022/05/26 04:30:19;;;;;;;1.70;0.47;;;;;;;14.21;100.00;99232.03;5016218;28;20384;-69
2022/05/26 04:32:45;;;;;;;0.95;0.40;;;;;;;14.18;100.00;99221.59;5013064;28;20025;-74
2022/05/26 04:35:10;;;;;;;5.15;0.50;;;;;;;14.24;100.00;99243.31;5020423;28;20125;-78
2022/05/26 04:37:36;;;;;;;1.75;0.70;;;;;;;14.01;100.00;99230.22;5016022;28;20030;-74
2022/05/26 04:40:02;;;;;;;1.17;0.63;;;;;;;14.12;100.00;99239.63;5015567;28;20116;-73
2022/05/26 04:42:29;;;;;;;0.60;0.55;;;;;;;14.05;100.00;99243.41;5026026;28;20021;-77
2022/05/26 04:44:55;;;;;;;1.48;0.55;;;;;;;14.19;100.00;99245.84;5021820;28;20109;-74
2022/05/26 04:47:20;;;;;;;1.13;0.50;;;;;;;14.07;100.00;99230.41;5027040;28;20037;-76
2022/05/26 04:49:46;;;;;;;0.73;0.47;;;;;;;14.23;100.00;99252.53;5030582;28;20029;-75
2022/05/26 04:52:15;;;;;;;1.80;0.60;;;;;;;14.36;100.00;99239.94;5034699;28;20056;-76
2022/05/26 04:54:42;;;;;;;1.27;0.52;;;;;;;14.38;100.00;99244.09;5036382;28;20010;-78
2022/05/26 04:57:08;;;;;;;1.80;0.40;;;;;;;14.54;100.00;99260.97;5029041;28;20426;-75
2022/05/26 04:59:34;;;;;;;1.65;0.60;;;;;;;14.55;100.00;99260.78;5020404;28;20108;-75
2022/05/26 05:02:00;;;;;;;1.85;0.40;;;;;;;14.54;100.00;99244.66;5013986;28;20080;-75
2022/05/26 05:04:27;;;;;;;1.10;0.43;;;;;;;14.56;100.00;99248.81;5018610;28;20029;-76
2022/05/26 05:06:54;;;;;;;0.75;0.47;;;;;;;14.58;100.00;99238.56;5015636;28;20089;-75
2022/05/26 05:09:21;;;;;;;2.05;0.50;;;;;;;14.87;100.00;99256.16;5017618;28;20029;-77
2022/05/26 05:11:47;;;;;;;0.95;0.40;;;;;;;14.93;100.00;99240.84;5023870;28;20029;-75
2022/05/26 05:14:13;;;;;;;0.77;0.60;;;;;;;15.33;100.00;99251.44;5021417;28;20029;-73
2022/05/26 05:16:42;;;;;;;1.83;0.50;;;;;;;15.76;92.44;99264.25;5016971;28;20022;-73
2022/05/26 05:19:11;;;;;;;;;;;;;;;15.87;89.47;99268.13;5014803;28;20506;-72
2022/05/26 05:22:00;;;;;;;0.65;0.40;;;;;;;16.17;88.04;99258.13;5021585;28;19921;-78
2022/05/26 05:24:39;;;;;;;1.35;0.40;;;;;;;16.24;89.80;99273.59;5029420;28;20314;-77
2022/05/26 05:27:14;;;;;;;4.28;0.70;;;;;;;15.96;88.13;99262.16;5017491;28;20030;-73
2022/05/26 05:29:41;;;;;;;1.90;0.40;;;;;;;16.02;90.49;99281.41;5021757;28;20049;-73
2022/05/26 05:32:16;;;;;;;1.65;0.47;;;;;;;16.03;88.98;99277.63;5022999;28;20033;-77
2022/05/26 05:34:51;;;;;;;3.92;0.40;;;;;;;16.04;90.30;99282.03;5022491;28;20040;-76
2022/05/26 05:37:17;;;;;;;3.20;0.90;;;;;;;15.71;92.52;99272.28;5026379;28;20030;-75
2022/05/26 05:39:42;;;;;;;1.98;0.73;;;;;;;15.94;90.99;99277.09;5029109;28;20085;-75
2022/05/26 05:42:08;;;;;;;3.42;0.65;;;;;;;15.95;91.35;99309.59;5025560;28;20038;-73
2022/05/26 05:44:34;;;;;;;2.00;0.50;;;;;;;15.95;92.57;99298.66;5014793;28;20025;-71
2022/05/26 05:47:01;;;;;;;2.45;0.50;;;;;;;15.81;90.19;99286.25;5010244;28;20109;-70
2022/05/26 05:49:29;;;;;;;4.13;1.30;;;;;;;15.91;90.19;99285.72;5006304;28;20152;-70
2022/05/26 05:51:57;;;;;;;2.15;0.65;;;;;;;16.19;88.76;99293.38;5016281;28;20030;-70
2022/05/26 05:54:23;;;;;;;6.00;0.60;;;;;;;15.71;93.61;99269.56;5011554;28;20557;-70
2022/05/26 05:56:49;;;;;;;2.08;0.55;;;;;;;16.51;89.71;99296.78;5025224;28;20038;-70
2022/05/26 05:59:14;;;;;;;0.52;0.30;;;;;;;16.46;87.16;99306.72;5006224;28;20025;-70
2022/05/26 06:01:40;;;;;;;2.05;0.30;;;;;;;16.12;87.07;99298.09;5003698;28;20030;-70
2022/05/26 06:04:06;;;;;;;1.30;0.50;;;;;;;16.04;90.45;99301.13;5012155;28;20379;-70
2022/05/26 06:06:40;;;;;;;0.63;0.30;;;;;;;16.17;88.56;99304.53;5020715;28;20385;-70
2022/05/26 06:09:06;;;;;;;1.70;0.40;;;;;;;16.05;89.02;99311.81;5012064;28;20030;-71
2022/05/26 06:11:32;;;;;;;0.90;0.32;;;;;;;16.05;90.19;99320.00;5008450;28;20492;-72
2022/05/26 06:13:59;;;;;;;4.85;1.00;;;;;;;16.04;90.35;99318.34;5007078;28;20499;-71
2022/05/26 06:16:24;;;;;;;2.50;0.63;;;;;;;16.06;91.35;99323.56;5002566;28;20057;-69
2022/05/26 06:18:50;;;;;;;1.70;0.60;;;;;;;16.11;89.79;99304.59;5007072;28;20140;-70
2022/05/26 06:21:16;;;;;;;1.15;0.30;;;;;;;16.33;90.22;99329.56;5009624;28;20038;-69
2022/05/26 06:23:42;;;;;;;1.95;0.73;;;;;;;16.37;88.65;99328.03;5002126;28;20027;-70
2022/05/26 06:26:07;;;;;;;2.25;0.40;;;;;;;16.47;88.27;99338.44;5005418;28;20022;-71
2022/05/26 06:31:20;;;;;;;1.30;0.60;;;;;;;16.81;85.94;99329.59;5003267;28;20043;-71
2022/05/26 06:39:13;;;;;;;3.72;0.30;;;;;;;16.97;84.26;99325.38;5024957;28;20056;-76
2022/05/26 06:44:23;;;;;;;1.63;0.50;;;;;;;17.49;80.97;99336.59;5019653;28;20033;-73
2022/05/26 06:46:48;;;;;;;2.63;0.60;;;;;;;16.94;80.14;99339.53;5016942;28;20030;-73
2022/05/26 06:49:13;;;;;;;1.70;0.45;;;;;;;17.56;75.94;99347.44;5016542;28;20093;-73
2022/05/26 06:51:39;;;;;;;1.42;0.30;;;;;;;18.12;72.43;99337.00;5026091;28;20022;-73
2022/05/26 06:54:05;;;;;;;2.60;0.60;;;;;;;17.46;75.44;99328.03;5020806;28;20018;-75
2022/05/26 06:56:31;;;;;;;2.08;0.40;;;;;;;17.77;74.31;99339.72;5024121;28;20438;-75
2022/05/26 06:58:56;;;;;;;2.22;0.50;;;;;;;18.45;70.92;99341.00;5023269;28;20096;-75
2022/05/26 07:01:21;;;;;;;3.97;0.45;;;;;;;18.29;68.32;99326.16;5020075;28;20049;-75
2022/05/26 07:03:47;;;;;;;1.15;0.40;;;;;;;18.42;69.57;99357.91;5015348;28;20088;-76
2022/05/26 07:06:19;;;;;;;6.20;0.63;;;;;;;18.52;67.97;99360.88;5020130;28;20085;-75
2022/05/26 07:08:45;;;;;;;3.13;0.30;;;;;;;18.65;68.54;99344.16;5019583;28;20026;-74
2022/05/26 07:11:11;;;;;;;2.70;0.50;;;;;;;18.52;66.77;99378.16;5020934;28;20022;-75
2022/05/26 07:13:37;;;;;;;2.97;0.30;;;;;;;18.05;69.92;99353.56;5019996;28;20041;-75
2022/05/26 07:16:02;;;;;;;9.65;0.60;;;;;;;18.54;70.04;99381.47;5017182;28;20033;-75
2022/05/26 07:18:28;;;;;;;1.42;0.30;;;;;;;19.08;65.54;99364.78;5015844;28;20030;-75
2022/05/26 07:20:53;;;;;;;1.63;0.43;;;;;;;19.25;70.20;99370.31;5014526;28;20095;-74
2022/05/26 07:23:18;;;;;;;2.58;0.43;;;;;;;19.55;60.27;99375.53;5018875;28;20466;-75
2022/05/26 07:25:45;;;;;;;2.03;0.30;;;;;;;19.38;61.53;99371.91;5020090;28;20045;-75
2022/05/26 07:28:12;;;;;;;2.47;0.43;;;;;;;19.35;63.47;99370.50;5016314;28;20025;-76
2022/05/26 07:30:38;;;;;;;0.95;0.30;;;;;;;19.06;65.66;99375.16;5014461;28;20021;-74
2022/05/26 07:33:04;;;;;;;1.40;0.40;;;;;;;19.79;60.32;99364.41;5017283;28;20033;-76
2022/05/26 07:35:29;;;;;;;1.35;0.45;;;;;;;19.55;61.46;99358.22;5015624;28;20018;-77
2022/05/26 07:43:25;;;;;;;3.75;0.50;;;;;;;19.55;64.26;99382.94;5007912;28;20033;-74
2022/05/26 07:45:50;;;;;;;2.05;0.50;;;;;;;19.71;63.66;99390.38;5011629;28;20093;-75
2022/05/26 07:48:16;;;;;;;2.72;0.60;;;;;;;18.80;66.12;99388.38;5013581;28;20026;-75
2022/05/26 07:50:41;;;;;;;0.40;0.25;;;;;;;18.53;68.50;99398.19;5012742;28;20026;-74
2022/05/26 07:53:07;;;;;;;2.70;0.40;;;;;;;18.18;72.17;99412.72;5009688;28;20026;-74
2022/05/26 07:55:33;;;;;;;1.10;0.30;;;;;;;17.67;74.84;99395.88;5017856;28;20052;-80
2022/05/26 07:57:59;;;;;;;2.20;0.40;;;;;;;17.69;73.65;99387.44;5014661;28;20388;-76
2022/05/26 08:00:24;;;;;;;3.92;0.50;;;;;;;17.79;73.75;99416.94;5012116;28;20018;-75
2022/05/26 08:02:50;;;;;;;3.40;0.50;;;;;;;17.31;77.35;99402.31;5012695;28;20029;-76
2022/05/26 08:05:15;;;;;;;4.53;0.50;;;;;;;17.45;78.71;99422.94;5002820;28;20068;-71
2022/05/26 08:07:43;;;;;;;3.10;0.47;;;;;;;17.70;77.34;99422.75;5014703;28;20021;-72
2022/05/26 08:10:09;;;;;;;2.08;0.52;;;;;;;17.62;75.88;99431.31;5014843;28;20490;-70
2022/05/26 08:12:34;;;;;;;1.65;0.50;;;;;;;17.29;77.88;99418.97;5007251;28;20022;-70
2022/05/26 08:14:59;;;;;;;1.30;0.30;;;;;;;17.31;77.03;99421.44;5012083;28;20061;-77
2022/05/26 08:17:24;;;;;;;1.98;0.60;;;;;;;16.99;79.16;99415.38;5018761;28;20033;-77
2022/05/26 08:19:51;;;;;;;1.08;0.40;;;;;;;17.03;79.59;99403.75;5017504;28;20037;-77
2022/05/26 08:22:18;;;;;;;0.77;0.40;;;;;;;17.21;76.70;99405.63;5021716;28;20041;-74
2022/05/26 08:24:49;;;;;;;1.23;0.40;;;;;;;16.67;79.79;99399.13;5015990;28;20049;-77
2022/05/26 08:27:15;;;;;;;1.65;0.40;;;;;;;16.92;79.44;99431.84;5011747;28;20655;-75
2022/05/26 08:29:41;;;;;;;2.63;0.40;;;;;;;17.14;76.77;99421.28;5017040;28;20080;-74
2022/05/26 08:32:06;;;;;;;3.50;0.70;;;;;;;17.23;75.28;99435.44;5017218;28;20018;-74
2022/05/26 08:34:32;;;;;;;3.22;0.55;;;;;;;17.25;75.21;99411.44;5021509;28;20034;-77
2022/05/26 08:36:57;;;;;;;5.18;0.52;;;;;;;17.56;73.22;99425.94;5021714;28;20034;-76
2022/05/26 08:39:23;;;;;;;2.83;0.60;;;;;;;17.33;75.14;99419.31;5020339;28;20030;-77
2022/05/26 08:41:51;;;;;;;1.30;0.50;;;;;;;17.88;74.28;99445.69;5020331;28;20396;-75
2022/05/26 08:44:31;;;;;;;1.05;0.40;;;;;;;17.96;73.37;99434.38;5014311;28;20022;-77
2022/05/26 08:47:15;;;;;;;2.65;0.68;;;;;;;18.59;69.17;99441.06;5015691;28;20040;-76
2022/05/26 08:49:42;;;;;;;1.45;0.40;;;;;;;18.35;68.24;99441.06;5013496;28;20029;-75
2022/05/26 08:52:10;;;;;;;3.95;0.30;;;;;;;18.72;67.29;99448.19;5013397;28;20030;-76
2022/05/26 08:55:16;;;;;;;4.75;0.65;;;;;;;18.55;68.76;99448.94;5015303;28;20080;-74
2022/05/26 08:57:56;;;;;;;2.20;0.68;;;;;;;19.32;65.51;99444.25;5012107;28;20042;-76
2022/05/26 09:00:24;;;;;;;2.35;0.43;;;;;;;19.52;63.44;99435.53;5013891;28;20034;-74
2022/05/26 09:02:56;;;;;;;1.58;0.35;;;;;;;19.33;64.73;99451.38;5015411;28;20034;-77
2022/05/26 09:05:22;;;;;;;2.05;0.40;;;;;;;19.62;63.00;99446.72;5020315;28;20117;-77
2022/05/26 09:13:54;;;;;;;0.82;0.30;;;;;;;18.37;67.46;99435.38;5014797;28;20032;-75
2022/05/26 09:16:21;;;;;;;1.52;0.43;;;;;;;18.12;67.84;99452.84;5016496;28;20415;-77
2022/05/26 09:19:25;;;;;;;3.13;0.60;;;;;;;18.46;66.58;99444.88;5013317;28;20029;-77
2022/05/26 09:21:51;;;;;;;1.58;0.45;;;;;;;18.88;66.67;99455.69;5013655;28;20052;-74
2022/05/26 09:24:33;;;;;;;2.25;0.70;;;;;;;19.63;62.60;99453.88;5016098;28;20032;-77
2022/05/26 09:27:29;;;;;;;1.73;0.40;;;;;;;20.05;59.78;99456.28;5014315;28;20033;-71
2022/05/26 09:30:16;;;;;;;1.65;0.40;;;;;;;18.89;66.84;99470.22;4997906;28;20050;-71
2022/05/26 09:32:42;;;;;;;5.50;0.60;;;;;;;19.70;62.93;99454.56;5012452;28;20378;-71
2022/05/26 09:35:13;;;;;;;2.10;0.50;;;;;;;20.14;60.47;99447.34;5010445;28;20025;-71
2022/05/26 09:37:47;;;;;;;1.75;0.50;;;;;;;19.79;62.03;99446.78;5011352;28;20026;-71
2022/05/26 09:40:18;;;;;;;2.63;0.77;;;;;;;20.04;61.34;99451.84;5008487;28;20029;-71
2022/05/26 09:42:45;;;;;;;1.48;0.40;;;;;;;19.85;63.93;99459.50;5006451;28;20480;-71
2022/05/26 09:45:16;;;;;;;3.85;0.55;;;;;;;19.92;62.07;99457.44;5013289;28;20061;-70
2022/05/26 09:47:54;;;;;;;1.75;0.50;;;;;;;19.94;62.46;99469.03;5012506;28;20641;-71
2022/05/26 09:50:38;;;;;;;3.40;0.70;;;;;;;20.09;65.06;99468.44;5009808;28;20452;-71
2022/05/26 09:53:09;;;;;;;2.13;0.63;;;;;;;20.43;61.07;99462.91;5009380;28;20431;-72
2022/05/26 09:58:57;;;;;;;3.08;0.60;;;;;;;21.15;57.47;99471.09;5009126;28;20061;-70
2022/05/26 10:01:23;;;;;;;1.52;0.47;;;;;;;21.40;56.05;99469.75;5008077;28;20026;-70
2022/05/26 10:04:00;;;;;;;3.42;0.50;;;;;;;21.49;55.40;99470.16;5008788;28;20026;-70
2022/05/26 10:06:50;;;;;;;4.75;0.50;;;;;;;21.32;55.37;99467.44;5002933;28;20049;-70
2022/05/26 10:09:33;;;;;;;1.55;0.50;;;;;;;22.15;51.99;99475.47;5002505;28;20025;-70
2022/05/26 10:12:21;;;;;;;1.80;0.50;;;;;;;22.39;51.90;99459.41;5007317;28;20026;-70
2022/05/26 10:15:11;;;;;;;1.20;0.40;;;;;;;23.28;51.47;99458.53;5010407;28;20495;-70
2022/05/26 10:17:46;;;;;;;4.75;0.73;;;;;;;24.39;46.50;99455.34;5005381;28;20030;-70
2022/05/26 10:20:23;;;;;;;3.83;0.32;;;;;;;24.92;45.44;99466.91;5006372;28;20085;-70
2022/05/26 10:23:26;;;;;;;4.07;0.60;;;;;;;23.73;46.63;99461.69;4995191;28;20034;-71
2022/05/26 10:26:03;;;;;;;4.63;0.90;;;;;;;23.38;48.46;99466.00;5009469;28;20021;-71
2022/05/26 10:28:47;;;;;;;1.88;0.50;;;;;;;22.99;47.71;99460.06;5003737;28;20510;-71
2022/05/26 10:31:49;;;;;;;3.10;0.43;;;;;;;24.16;45.84;99459.53;5006295;28;20448;-71
2022/05/26 10:34:46;;;;;;;2.28;0.65;;;;;;;23.81;46.67;99466.69;5010170;28;20526;-70
2022/05/26 10:37:33;;;;;;;1.75;0.60;;;;;;;22.80;49.22;99465.19;5007295;28;20429;-70
2022/05/26 10:40:17;;;;;;;3.60;0.52;;;;;;;23.02;49.11;99463.09;5009272;28;20026;-70
2022/05/26 10:42:49;;;;;;;2.20;0.55;;;;;;;20.87;56.89;99421.78;5012002;28;20022;-70
2022/05/26 10:45:25;;;;;;;2.42;0.52;;;;;;;21.75;55.98;99458.31;5008558;28;20037;-70
2022/05/26 10:47:59;;;;;;;1.05;0.35;;;;;;;22.92;51.21;99461.13;5006353;28;20034;-70
2022/05/26 10:50:35;;;;;;;3.55;0.70;;;;;;;23.90;51.09;99453.16;5011531;28;20022;-70
2022/05/26 10:53:18;;;;;;;1.20;0.50;;;;;;;23.23;52.06;99460.44;5010773;28;20033;-70
2022/05/26 10:56:03;;;;;;;1.55;0.50;;;;;;;23.58;48.17;99452.25;5008853;28;20025;-70
2022/05/26 10:58:32;;;;;;;2.33;0.68;;;;;;;23.84;49.17;99455.06;5006540;28;20412;-70
2022/05/26 11:01:26;;;;;;;2.00;0.60;;;;;;;23.36;48.81;99471.78;5010100;28;20040;-69
2022/05/26 11:03:58;;;;;;;2.85;0.65;;;;;;;23.38;48.41;99474.31;5009784;28;20883;-70
2022/05/26 11:06:30;;;;;;;3.50;0.60;;;;;;;22.94;49.84;99471.88;5008807;28;20028;-70
2022/05/26 11:09:07;;;;;;;4.30;0.80;;;;;;;23.59;49.52;99458.63;5009789;28;20030;-70
2022/05/26 11:11:48;;;;;;;1.15;0.65;;;;;;;23.45;47.34;99447.25;5011255;28;20553;-70
2022/05/26 11:17:23;;;;;;;3.75;0.60;;;;;;;20.90;56.55;99457.84;5009235;28;20087;-70
2022/05/26 11:20:08;;;;;;;4.15;2.25;;;;;;;21.95;54.46;99468.66;5007913;28;20056;-70
2022/05/26 11:22:34;;;;;;;2.70;0.60;;;;;;;20.87;58.53;99463.84;5007233;28;20718;-70
2022/05/26 11:25:01;;;;;;;0.82;0.40;;;;;;;21.00;57.79;99462.66;5010135;28;20045;-70
2022/05/26 11:27:43;;;;;;;2.40;0.70;;;;;;;20.58;61.52;99452.19;5001245;28;20517;-70
2022/05/26 11:38:34;;;;;;;1.83;0.73;;;;;;;21.08;59.47;99464.94;5013924;28;20088;-70
2022/05/26 11:41:24;;;;;;;3.00;0.73;;;;;;;20.85;61.53;99476.19;5007566;28;20026;-70
2022/05/26 11:44:01;;;;;;;3.67;0.80;;;;;;;20.27;63.95;99470.09;5006403;28;20034;-70
2022/05/26 11:46:43;;;;;;;2.58;0.70;;;;;;;20.49;64.19;99482.00;5010030;28;20571;-70
2022/05/26 11:49:10;;;;;;;1.48;0.47;;;;;;;20.66;62.72;99467.41;5008273;28;20112;-71
2022/05/26 11:51:39;;;;;;;3.42;0.63;;;;;;;20.98;63.29;99462.91;5007756;28;20149;-70
2022/05/26 11:54:06;;;;;;;6.68;0.57;;;;;;;21.73;61.80;99476.19;5010187;28;20424;-70
2022/05/26 11:56:31;;;;;;;0.55;0.40;;;;;;;21.57;59.08;99473.25;5005686;28;20175;-70
2022/05/26 11:59:34;;;;;;;4.10;1.00;;;;;;;22.55;56.94;99474.94;5009154;28;20120;-70
2022/05/26 12:01:59;;;;;;;2.40;0.80;;;;;;;23.16;54.92;99460.66;5023827;28;21002;-70
2022/05/26 12:04:30;;;;;;;3.08;0.63;;;;;;;23.57;52.62;99464.41;5004679;28;20040;-70
2022/05/26 12:07:06;;;;;;;2.30;0.57;;;;;;;22.93;53.34;99468.28;5003723;28;20041;-70
2022/05/26 12:09:35;;;;;;;1.25;0.45;;;;;;;22.59;54.31;99467.00;5011441;28;20056;-72
2022/05/26 12:12:28;;;;;;;2.63;0.60;;;;;;;22.69;55.95;99467.88;5010328;28;20033;-70
2022/05/26 12:14:56;;;;;;;1.60;0.63;;;;;;;22.69;53.80;99458.78;5008500;28;20109;-70
2022/05/26 12:17:27;;;;;;;3.50;0.77;;;;;;;21.63;57.80;99450.19;5006063;28;20038;-70
2022/05/26 12:19:53;;;;;;;2.92;0.60;;;;;;;22.05;56.92;99463.25;5005885;28;20044;-70
2022/05/26 12:22:25;;;;;;;3.00;0.60;;;;;;;21.07;60.46;99468.81;5006586;28;20030;-70
2022/05/26 12:25:00;;;;;;;2.35;0.60;;;;;;;21.40;56.92;99467.00;5010764;28;20084;-71
2022/05/26 12:27:48;;;;;;;2.17;0.63;;;;;;;21.39;58.77;99462.59;5005317;28;20080;-70
2022/05/26 12:30:32;;;;;;;1.02;0.52;;;;;;;21.80;58.32;99466.63;4988905;28;20050;-70
2022/05/26 12:33:01;;;;;;;2.30;0.88;;;;;;;21.55;60.69;99466.34;5007812;28;20046;-70
2022/05/26 12:35:37;;;;;;;2.55;0.63;;;;;;;20.49;64.10;99462.75;5008549;28;20109;-70
2022/05/26 12:38:23;;;;;;;1.70;0.57;;;;;;;20.95;63.96;99459.84;5004466;28;20026;-71